EST,Max TemperatureF,Mean TemperatureF,Min TemperatureF,Max Dew PointF,MeanDew PointF,Min DewpointF,Max Humidity, Mean Humidity, Min Humidity, Max Sea Level PressureIn, Mean Sea Level PressureIn, Min Sea Level PressureIn, Max VisibilityMiles, Mean VisibilityMiles, Min VisibilityMiles, Max Wind SpeedMPH, Mean Wind SpeedMPH, Max Gust SpeedMPH,PrecipitationIn, CloudCover, Events, WindDirDegrees
2013-12-1,51,42,32,35,30,25,89,70,50,30.22,30.10,29.98,10,10,10,14,6,17,0.00,6,,207
2013-12-2,56,43,30,41,36,30,92,73,54,29.96,29.86,29.78,10,10,9,8,1,10,0.00,5,,147
2013-12-3,56,45,34,48,41,34,100,86,72,29.87,29.81,29.78,10,6,0,10,2,14,0.00,5,Fog,147
2013-12-4,67,56,44,58,53,46,100,87,73,29.85,29.81,29.73,10,8,4,15,8,21,T,6,Rain,158
2013-12-5,66,50,34,63,48,33,93,86,78,30.14,29.95,29.80,10,6,0,18,9,25,1.03,8,Fog-Rain,305
2013-12-6,34,31,28,34,29,26,100,95,89,30.38,30.20,30.10,10,4,1,15,8,21,0.80,8,Rain-Snow,1
2013-12-7,28,26,23,27,23,18,92,87,81,30.58,30.49,30.35,10,8,3,13,7,17,T,6,Snow,11
2013-12-8,34,29,23,34,27,19,100,91,81,30.46,30.19,30.03,10,3,1,14,6,20,0.28,8,Rain-Snow,74
2013-12-9,34,30,26,34,28,21,100,89,78,30.26,30.16,30.02,10,8,2,12,6,17,T,7,Snow,261
2013-12-10,30,24,17,22,19,15,92,78,63,30.40,30.26,30.17,10,7,1,18,7,23,0.01,5,Snow,283
2013-12-11,38,27,15,26,19,12,92,72,52,30.53,30.42,30.34,10,9,5,17,7,24,0.00,2,,269
2013-12-12,29,20,11,13,10,7,92,67,42,30.61,30.49,30.35,10,10,8,9,5,12,0.00,0,,246
2013-12-13,43,31,18,33,20,12,100,68,36,30.38,30.26,30.13,10,10,6,17,6,25,0.06,2,Rain,204
2013-12-14,44,39,34,43,38,32,100,95,89,30.12,29.85,29.71,10,6,2,18,8,26,0.59,8,Rain,171
2013-12-15,34,31,27,32,26,21,96,84,72,30.17,30.05,29.90,10,9,5,16,9,23,0.00,8,,274
2013-12-16,43,36,29,33,30,25,92,81,70,30.15,30.09,30.02,10,9,7,14,7,17,0.00,5,,216
2013-12-17,41,33,25,34,30,24,96,84,72,30.23,30.09,30.01,10,8,4,14,6,21,0.01,6,,264
2013-12-18,40,31,21,23,19,15,100,69,37,30.33,30.24,30.11,10,9,6,14,8,18,0.00,0,,218
2013-12-19,60,48,36,39,29,19,59,49,39,30.16,30.08,30.00,10,10,10,23,12,31,0.00,2,,201
2013-12-20,61,56,51,56,47,32,93,68,43,29.99,29.94,29.87,10,10,4,22,13,29,0.10,8,Rain,196
2013-12-21,72,65,58,62,59,55,93,81,68,29.88,29.74,29.54,10,7,1,37,13,58,1.15,8,Rain-Thunderstorm,183
2013-12-22,60,49,38,58,48,37,93,82,71,30.08,29.87,29.62,10,9,5,24,10,38,0.36,6,Rain,246
2013-12-23,38,32,26,37,27,19,100,80,59,30.42,30.26,30.08,10,10,8,15,7,21,0.01,7,,300
2013-12-24,26,21,15,21,13,7,88,71,54,30.58,30.50,30.39,10,9,2,17,5,24,T,4,Snow,302
2013-12-25,40,28,15,18,15,11,80,57,33,30.49,30.37,30.24,10,10,10,14,6,18,0.00,4,,178
2013-12-26,42,34,25,26,23,19,81,62,43,30.41,30.34,30.23,10,10,10,15,5,25,0.00,3,,246
2013-12-27,50,36,21,26,23,19,92,64,36,30.45,30.39,30.34,10,10,10,14,5,17,0.00,0,,214
2013-12-28,51,40,29,35,25,21,69,53,36,30.34,30.23,30.05,10,10,6,13,6,16,0.04,1,Rain,195
2013-12-29,46,39,32,40,37,28,100,88,76,30.08,29.92,29.86,10,7,2,17,8,25,0.49,8,Rain,269
2013-12-30,32,27,22,29,23,18,92,78,63,30.27,30.20,30.09,10,9,2,13,5,19,0.01,6,Snow,275
2013-12-31,36,28,20,21,18,16,88,68,47,30.42,30.33,30.24,10,10,9,14,7,20,0.00,2,,224